sensor_id;sensor_type;location;lat;lon;timestamp;P1;durP1;ratioP1;P2;durP2;ratioP2
27383;SDS011;14851;51.166;4.760;2022-08-21T00:00:04;6.65;;;5.32;;
27383;SDS011;14851;51.166;4.760;2022-08-21T00:02:37;5.90;;;4.93;;
27383;SDS011;14851;51.166;4.760;2022-08-21T00:05:13;8.43;;;5.55;;
27383;SDS011;14851;51.166;4.760;2022-08-21T00:07:40;9.05;;;6.10;;
27383;SDS011;14851;51.166;4.760;2022-08-21T00:10:07;8.27;;;5.88;;
27383;SDS011;14851;51.166;4.760;2022-08-21T00:12:34;8.20;;;6.38;;
27383;SDS011;14851;51.166;4.760;2022-08-21T00:15:01;9.38;;;5.80;;
27383;SDS011;14851;51.166;4.760;2022-08-21T00:17:29;9.60;;;5.80;;
27383;SDS011;14851;51.166;4.760;2022-08-21T00:19:55;9.55;;;6.20;;
27383;SDS011;14851;51.166;4.760;2022-08-21T00:22:23;8.75;;;6.85;;
27383;SDS011;14851;51.166;4.760;2022-08-21T00:24:49;13.43;;;7.93;;
27383;SDS011;14851;51.166;4.760;2022-08-21T00:27:16;10.00;;;6.85;;
27383;SDS011;14851;51.166;4.760;2022-08-21T00:29:44;18.30;;;7.00;;
27383;SDS011;14851;51.166;4.760;2022-08-21T00:32:10;10.13;;;6.53;;
27383;SDS011;14851;51.166;4.760;2022-08-21T00:34:36;9.73;;;6.28;;
27383;SDS011;14851;51.166;4.760;2022-08-21T00:37:03;6.70;;;5.95;;
27383;SDS011;14851;51.166;4.760;2022-08-21T00:39:29;6.88;;;5.60;;
27383;SDS011;14851;51.166;4.760;2022-08-21T00:41:56;8.52;;;5.82;;
27383;SDS011;14851;51.166;4.760;2022-08-21T00:44:22;7.65;;;5.90;;
27383;SDS011;14851;51.166;4.760;2022-08-21T00:46:48;10.30;;;5.75;;
27383;SDS011;14851;51.166;4.760;2022-08-21T00:49:15;8.65;;;5.70;;
27383;SDS011;14851;51.166;4.760;2022-08-21T00:51:49;8.90;;;4.95;;
27383;SDS011;14851;51.166;4.760;2022-08-21T00:54:24;10.95;;;5.93;;
27383;SDS011;14851;51.166;4.760;2022-08-21T00:56:55;9.63;;;5.32;;
27383;SDS011;14851;51.166;4.760;2022-08-21T00:59:26;7.03;;;5.22;;
27383;SDS011;14851;51.166;4.760;2022-08-21T01:01:54;7.03;;;4.93;;
27383;SDS011;14851;51.166;4.760;2022-08-21T01:04:20;8.98;;;5.65;;
27383;SDS011;14851;51.166;4.760;2022-08-21T01:06:50;6.77;;;5.30;;
27383;SDS011;14851;51.166;4.760;2022-08-21T01:09:16;10.18;;;5.10;;
27383;SDS011;14851;51.166;4.760;2022-08-21T01:11:44;8.20;;;4.88;;
27383;SDS011;14851;51.166;4.760;2022-08-21T01:14:11;7.60;;;5.13;;
27383;SDS011;14851;51.166;4.760;2022-08-21T01:16:40;9.85;;;5.03;;
27383;SDS011;14851;51.166;4.760;2022-08-21T01:19:12;10.10;;;4.82;;
27383;SDS011;14851;51.166;4.760;2022-08-21T01:21:40;8.57;;;5.40;;
27383;SDS011;14851;51.166;4.760;2022-08-21T01:24:06;7.68;;;4.80;;
27383;SDS011;14851;51.166;4.760;2022-08-21T01:26:33;9.50;;;4.93;;
27383;SDS011;14851;51.166;4.760;2022-08-21T01:29:23;7.63;;;5.07;;
27383;SDS011;14851;51.166;4.760;2022-08-21T01:32:12;9.45;;;4.47;;
27383;SDS011;14851;51.166;4.760;2022-08-21T01:34:42;7.57;;;4.55;;
27383;SDS011;14851;51.166;4.760;2022-08-21T01:37:09;9.38;;;4.88;;
27383;SDS011;14851;51.166;4.760;2022-08-21T01:39:37;9.02;;;5.00;;
27383;SDS011;14851;51.166;4.760;2022-08-21T01:42:04;9.48;;;4.47;;
27383;SDS011;14851;51.166;4.760;2022-08-21T01:44:31;7.53;;;4.70;;
27383;SDS011;14851;51.166;4.760;2022-08-21T01:46:58;8.32;;;4.63;;
27383;SDS011;14851;51.166;4.760;2022-08-21T01:49:25;6.53;;;4.30;;
27383;SDS011;14851;51.166;4.760;2022-08-21T01:51:55;7.97;;;4.45;;
27383;SDS011;14851;51.166;4.760;2022-08-21T01:54:21;6.70;;;4.60;;
27383;SDS011;14851;51.166;4.760;2022-08-21T01:56:49;8.90;;;4.40;;
27383;SDS011;14851;51.166;4.760;2022-08-21T01:59:17;9.40;;;5.00;;
27383;SDS011;14851;51.166;4.760;2022-08-21T02:01:43;7.53;;;4.90;;
27383;SDS011;14851;51.166;4.760;2022-08-21T02:04:10;11.13;;;4.72;;
27383;SDS011;14851;51.166;4.760;2022-08-21T02:06:39;7.28;;;4.45;;
27383;SDS011;14851;51.166;4.760;2022-08-21T02:09:06;8.82;;;4.85;;
27383;SDS011;14851;51.166;4.760;2022-08-21T02:11:34;11.68;;;4.97;;
27383;SDS011;14851;51.166;4.760;2022-08-21T02:14:01;7.57;;;4.80;;
27383;SDS011;14851;51.166;4.760;2022-08-21T02:16:31;7.15;;;4.55;;
27383;SDS011;14851;51.166;4.760;2022-08-21T02:18:58;13.00;;;4.70;;
27383;SDS011;14851;51.166;4.760;2022-08-21T02:21:25;7.03;;;4.40;;
27383;SDS011;14851;51.166;4.760;2022-08-21T02:23:52;8.30;;;4.85;;
27383;SDS011;14851;51.166;4.760;2022-08-21T02:26:18;7.57;;;4.00;;
27383;SDS011;14851;51.166;4.760;2022-08-21T02:28:49;9.23;;;4.65;;
27383;SDS011;14851;51.166;4.760;2022-08-21T02:31:18;7.75;;;4.55;;
27383;SDS011;14851;51.166;4.760;2022-08-21T02:33:47;7.28;;;4.70;;
27383;SDS011;14851;51.166;4.760;2022-08-21T02:36:13;7.78;;;4.45;;
27383;SDS011;14851;51.166;4.760;2022-08-21T02:38:41;8.15;;;4.32;;
27383;SDS011;14851;51.166;4.760;2022-08-21T02:41:12;7.85;;;4.35;;
27383;SDS011;14851;51.166;4.760;2022-08-21T02:43:44;8.85;;;4.15;;
27383;SDS011;14851;51.166;4.760;2022-08-21T02:46:11;7.35;;;4.28;;
27383;SDS011;14851;51.166;4.760;2022-08-21T02:48:39;8.98;;;4.80;;
27383;SDS011;14851;51.166;4.760;2022-08-21T02:51:08;8.45;;;4.28;;
27383;SDS011;14851;51.166;4.760;2022-08-21T02:53:39;11.82;;;4.28;;
27383;SDS011;14851;51.166;4.760;2022-08-21T02:56:08;8.55;;;4.40;;
27383;SDS011;14851;51.166;4.760;2022-08-21T02:58:39;7.85;;;4.57;;
27383;SDS011;14851;51.166;4.760;2022-08-21T03:01:12;7.93;;;4.32;;
27383;SDS011;14851;51.166;4.760;2022-08-21T03:03:39;12.00;;;4.63;;
27383;SDS011;14851;51.166;4.760;2022-08-21T03:06:10;6.03;;;3.88;;
27383;SDS011;14851;51.166;4.760;2022-08-21T03:08:38;6.28;;;3.92;;
27383;SDS011;14851;51.166;4.760;2022-08-21T03:11:06;8.25;;;4.65;;
27383;SDS011;14851;51.166;4.760;2022-08-21T03:13:36;6.93;;;3.60;;
27383;SDS011;14851;51.166;4.760;2022-08-21T03:16:04;9.52;;;4.35;;
27383;SDS011;14851;51.166;4.760;2022-08-21T03:18:32;11.20;;;4.85;;
27383;SDS011;14851;51.166;4.760;2022-08-21T03:20:57;10.85;;;5.32;;
27383;SDS011;14851;51.166;4.760;2022-08-21T03:23:24;9.20;;;4.45;;
27383;SDS011;14851;51.166;4.760;2022-08-21T03:25:51;12.82;;;4.78;;
27383;SDS011;14851;51.166;4.760;2022-08-21T03:28:18;6.28;;;3.72;;
27383;SDS011;14851;51.166;4.760;2022-08-21T03:30:47;8.40;;;3.75;;
27383;SDS011;14851;51.166;4.760;2022-08-21T03:33:15;6.53;;;3.85;;
27383;SDS011;14851;51.166;4.760;2022-08-21T03:35:44;6.43;;;4.50;;
27383;SDS011;14851;51.166;4.760;2022-08-21T03:38:12;5.97;;;4.03;;
27383;SDS011;14851;51.166;4.760;2022-08-21T03:40:39;6.95;;;3.92;;
27383;SDS011;14851;51.166;4.760;2022-08-21T03:43:10;8.85;;;3.72;;
27383;SDS011;14851;51.166;4.760;2022-08-21T03:45:37;11.57;;;4.35;;
27383;SDS011;14851;51.166;4.760;2022-08-21T03:48:04;6.95;;;3.53;;
27383;SDS011;14851;51.166;4.760;2022-08-21T03:50:36;8.20;;;4.30;;
27383;SDS011;14851;51.166;4.760;2022-08-21T03:53:06;9.02;;;4.10;;
27383;SDS011;14851;51.166;4.760;2022-08-21T03:55:36;7.70;;;3.75;;
27383;SDS011;14851;51.166;4.760;2022-08-21T03:58:03;8.73;;;4.20;;
27383;SDS011;14851;51.166;4.760;2022-08-21T04:00:29;8.98;;;3.55;;
27383;SDS011;14851;51.166;4.760;2022-08-21T04:02:58;6.97;;;3.35;;
27383;SDS011;14851;51.166;4.760;2022-08-21T04:05:25;7.45;;;3.78;;
27383;SDS011;14851;51.166;4.760;2022-08-21T04:07:56;7.50;;;3.72;;
27383;SDS011;14851;51.166;4.760;2022-08-21T04:10:25;10.07;;;4.05;;
27383;SDS011;14851;51.166;4.760;2022-08-21T04:12:56;8.13;;;3.78;;
27383;SDS011;14851;51.166;4.760;2022-08-21T04:15:25;10.77;;;4.13;;
27383;SDS011;14851;51.166;4.760;2022-08-21T04:17:52;6.55;;;3.63;;
27383;SDS011;14851;51.166;4.760;2022-08-21T04:20:19;9.73;;;3.60;;
27383;SDS011;14851;51.166;4.760;2022-08-21T04:22:46;9.05;;;4.07;;
27383;SDS011;14851;51.166;4.760;2022-08-21T04:25:14;5.57;;;3.50;;
27383;SDS011;14851;51.166;4.760;2022-08-21T04:27:41;8.35;;;3.13;;
27383;SDS011;14851;51.166;4.760;2022-08-21T04:30:10;6.05;;;3.53;;
27383;SDS011;14851;51.166;4.760;2022-08-21T04:32:37;8.00;;;3.70;;
27383;SDS011;14851;51.166;4.760;2022-08-21T04:35:06;8.70;;;3.30;;
27383;SDS011;14851;51.166;4.760;2022-08-21T04:37:36;7.78;;;3.53;;
27383;SDS011;14851;51.166;4.760;2022-08-21T04:40:03;7.97;;;3.45;;
27383;SDS011;14851;51.166;4.760;2022-08-21T04:42:31;7.45;;;3.65;;
27383;SDS011;14851;51.166;4.760;2022-08-21T04:44:57;7.22;;;3.60;;
27383;SDS011;14851;51.166;4.760;2022-08-21T04:47:26;9.43;;;4.10;;
27383;SDS011;14851;51.166;4.760;2022-08-21T04:52:21;11.50;;;4.05;;
27383;SDS011;14851;51.166;4.760;2022-08-21T04:54:48;10.25;;;4.32;;
27383;SDS011;14851;51.166;4.760;2022-08-21T04:57:17;10.00;;;3.70;;
27383;SDS011;14851;51.166;4.760;2022-08-21T04:59:47;7.07;;;3.03;;
27383;SDS011;14851;51.166;4.760;2022-08-21T05:02:16;5.78;;;3.28;;
27383;SDS011;14851;51.166;4.760;2022-08-21T05:04:47;6.20;;;2.95;;
27383;SDS011;14851;51.166;4.760;2022-08-21T05:07:19;8.82;;;3.72;;
27383;SDS011;14851;51.166;4.760;2022-08-21T05:09:50;7.57;;;3.30;;
27383;SDS011;14851;51.166;4.760;2022-08-21T05:12:17;5.82;;;3.42;;
27383;SDS011;14851;51.166;4.760;2022-08-21T05:14:44;6.28;;;3.55;;
27383;SDS011;14851;51.166;4.760;2022-08-21T05:17:10;8.18;;;3.35;;
27383;SDS011;14851;51.166;4.760;2022-08-21T05:19:37;9.00;;;3.50;;
27383;SDS011;14851;51.166;4.760;2022-08-21T05:22:04;8.15;;;3.40;;
27383;SDS011;14851;51.166;4.760;2022-08-21T05:24:31;6.55;;;3.15;;
27383;SDS011;14851;51.166;4.760;2022-08-21T05:26:58;8.82;;;3.30;;
27383;SDS011;14851;51.166;4.760;2022-08-21T05:29:27;10.77;;;3.30;;
27383;SDS011;14851;51.166;4.760;2022-08-21T05:31:56;5.47;;;2.97;;
27383;SDS011;14851;51.166;4.760;2022-08-21T05:34:23;7.38;;;3.17;;
27383;SDS011;14851;51.166;4.760;2022-08-21T05:36:50;8.20;;;3.88;;
27383;SDS011;14851;51.166;4.760;2022-08-21T05:39:15;9.23;;;3.50;;
27383;SDS011;14851;51.166;4.760;2022-08-21T05:41:42;7.80;;;3.65;;
27383;SDS011;14851;51.166;4.760;2022-08-21T05:44:09;9.57;;;3.70;;
27383;SDS011;14851;51.166;4.760;2022-08-21T05:46:36;7.32;;;3.88;;
27383;SDS011;14851;51.166;4.760;2022-08-21T05:49:01;8.43;;;4.40;;
27383;SDS011;14851;51.166;4.760;2022-08-21T05:51:28;7.10;;;3.78;;
27383;SDS011;14851;51.166;4.760;2022-08-21T05:53:56;8.57;;;3.20;;
27383;SDS011;14851;51.166;4.760;2022-08-21T05:56:22;13.52;;;4.45;;
27383;SDS011;14851;51.166;4.760;2022-08-21T05:58:49;7.25;;;3.95;;
27383;SDS011;14851;51.166;4.760;2022-08-21T06:01:14;10.10;;;3.95;;
27383;SDS011;14851;51.166;4.760;2022-08-21T06:03:40;10.38;;;4.28;;
27383;SDS011;14851;51.166;4.760;2022-08-21T06:06:07;7.57;;;4.07;;
27383;SDS011;14851;51.166;4.760;2022-08-21T06:08:34;14.75;;;3.50;;
27383;SDS011;14851;51.166;4.760;2022-08-21T06:11:00;8.70;;;4.07;;
27383;SDS011;14851;51.166;4.760;2022-08-21T06:13:28;9.73;;;3.97;;
27383;SDS011;14851;51.166;4.760;2022-08-21T06:18:50;11.68;;;5.10;;
27383;SDS011;14851;51.166;4.760;2022-08-21T06:21:16;7.63;;;3.55;;
27383;SDS011;14851;51.166;4.760;2022-08-21T06:23:43;6.53;;;3.20;;
27383;SDS011;14851;51.166;4.760;2022-08-21T06:26:13;7.82;;;2.85;;
27383;SDS011;14851;51.166;4.760;2022-08-21T06:28:40;7.40;;;3.42;;
27383;SDS011;14851;51.166;4.760;2022-08-21T06:31:23;9.35;;;3.63;;
27383;SDS011;14851;51.166;4.760;2022-08-21T06:33:50;12.95;;;3.83;;
27383;SDS011;14851;51.166;4.760;2022-08-21T06:36:17;10.52;;;3.00;;
27383;SDS011;14851;51.166;4.760;2022-08-21T06:38:44;10.00;;;3.25;;
27383;SDS011;14851;51.166;4.760;2022-08-21T06:41:13;11.45;;;2.90;;
27383;SDS011;14851;51.166;4.760;2022-08-21T06:43:40;11.95;;;4.25;;
27383;SDS011;14851;51.166;4.760;2022-08-21T06:46:09;10.00;;;3.15;;
27383;SDS011;14851;51.166;4.760;2022-08-21T06:48:35;10.25;;;3.10;;
27383;SDS011;14851;51.166;4.760;2022-08-21T06:51:01;9.68;;;3.17;;
27383;SDS011;14851;51.166;4.760;2022-08-21T06:53:28;10.27;;;3.22;;
27383;SDS011;14851;51.166;4.760;2022-08-21T06:55:54;8.48;;;3.08;;
27383;SDS011;14851;51.166;4.760;2022-08-21T06:58:21;12.82;;;3.17;;
27383;SDS011;14851;51.166;4.760;2022-08-21T07:00:50;11.35;;;3.15;;
27383;SDS011;14851;51.166;4.760;2022-08-21T07:03:18;10.02;;;3.33;;
27383;SDS011;14851;51.166;4.760;2022-08-21T07:05:52;16.38;;;3.60;;
27383;SDS011;14851;51.166;4.760;2022-08-21T07:08:20;13.40;;;3.33;;
27383;SDS011;14851;51.166;4.760;2022-08-21T07:10:47;11.43;;;3.50;;
27383;SDS011;14851;51.166;4.760;2022-08-21T07:13:15;14.55;;;3.45;;
27383;SDS011;14851;51.166;4.760;2022-08-21T07:15:44;10.93;;;3.22;;
27383;SDS011;14851;51.166;4.760;2022-08-21T07:18:11;13.50;;;3.47;;
27383;SDS011;14851;51.166;4.760;2022-08-21T07:20:38;11.57;;;3.33;;
27383;SDS011;14851;51.166;4.760;2022-08-21T07:23:07;10.60;;;2.78;;
27383;SDS011;14851;51.166;4.760;2022-08-21T07:25:37;11.52;;;3.88;;
27383;SDS011;14851;51.166;4.760;2022-08-21T07:28:02;11.13;;;3.05;;
27383;SDS011;14851;51.166;4.760;2022-08-21T07:30:29;9.85;;;3.30;;
27383;SDS011;14851;51.166;4.760;2022-08-21T07:32:56;9.27;;;2.88;;
27383;SDS011;14851;51.166;4.760;2022-08-21T07:35:24;11.02;;;3.10;;
27383;SDS011;14851;51.166;4.760;2022-08-21T07:37:50;8.18;;;2.65;;
27383;SDS011;14851;51.166;4.760;2022-08-21T07:40:19;10.45;;;3.33;;
27383;SDS011;14851;51.166;4.760;2022-08-21T07:42:46;10.98;;;2.67;;
27383;SDS011;14851;51.166;4.760;2022-08-21T07:45:15;8.50;;;2.70;;
27383;SDS011;14851;51.166;4.760;2022-08-21T07:47:42;10.00;;;2.78;;
27383;SDS011;14851;51.166;4.760;2022-08-21T07:50:12;9.80;;;2.45;;
27383;SDS011;14851;51.166;4.760;2022-08-21T07:52:40;10.27;;;2.50;;
27383;SDS011;14851;51.166;4.760;2022-08-21T07:55:08;15.05;;;3.15;;
27383;SDS011;14851;51.166;4.760;2022-08-21T07:57:36;9.75;;;2.90;;
27383;SDS011;14851;51.166;4.760;2022-08-21T08:00:07;12.95;;;2.95;;
27383;SDS011;14851;51.166;4.760;2022-08-21T08:02:40;10.00;;;2.60;;
27383;SDS011;14851;51.166;4.760;2022-08-21T08:05:10;9.52;;;2.45;;
27383;SDS011;14851;51.166;4.760;2022-08-21T08:07:36;9.15;;;2.28;;
27383;SDS011;14851;51.166;4.760;2022-08-21T08:10:04;11.15;;;2.17;;
27383;SDS011;14851;51.166;4.760;2022-08-21T08:12:34;7.55;;;2.20;;
27383;SDS011;14851;51.166;4.760;2022-08-21T08:15:03;8.68;;;2.80;;
27383;SDS011;14851;51.166;4.760;2022-08-21T08:17:31;13.77;;;3.10;;
27383;SDS011;14851;51.166;4.760;2022-08-21T08:19:58;9.13;;;2.03;;
27383;SDS011;14851;51.166;4.760;2022-08-21T08:22:26;12.27;;;2.42;;
27383;SDS011;14851;51.166;4.760;2022-08-21T08:24:56;11.20;;;2.45;;
27383;SDS011;14851;51.166;4.760;2022-08-21T08:27:23;13.43;;;3.00;;
27383;SDS011;14851;51.166;4.760;2022-08-21T08:29:49;11.63;;;2.05;;
27383;SDS011;14851;51.166;4.760;2022-08-21T08:32:17;9.18;;;2.20;;
27383;SDS011;14851;51.166;4.760;2022-08-21T08:34:43;10.55;;;2.30;;
27383;SDS011;14851;51.166;4.760;2022-08-21T08:37:10;10.55;;;2.28;;
27383;SDS011;14851;51.166;4.760;2022-08-21T08:39:36;8.10;;;2.05;;
27383;SDS011;14851;51.166;4.760;2022-08-21T08:44:31;7.03;;;1.65;;
27383;SDS011;14851;51.166;4.760;2022-08-21T08:46:57;9.85;;;1.92;;
27383;SDS011;14851;51.166;4.760;2022-08-21T08:52:18;7.97;;;1.48;;
27383;SDS011;14851;51.166;4.760;2022-08-21T08:55:02;11.07;;;2.08;;
27383;SDS011;14851;51.166;4.760;2022-08-21T08:57:32;32.28;;;3.80;;
27383;SDS011;14851;51.166;4.760;2022-08-21T09:00:00;36.17;;;3.33;;
27383;SDS011;14851;51.166;4.760;2022-08-21T09:02:30;7.60;;;1.50;;
27383;SDS011;14851;51.166;4.760;2022-08-21T09:04:59;8.25;;;1.60;;
27383;SDS011;14851;51.166;4.760;2022-08-21T09:13:50;5.03;;;1.23;;
27383;SDS011;14851;51.166;4.760;2022-08-21T09:21:49;8.75;;;1.85;;
27383;SDS011;14851;51.166;4.760;2022-08-21T09:27:40;5.97;;;1.42;;
27383;SDS011;14851;51.166;4.760;2022-08-21T09:30:08;4.32;;;1.17;;
27383;SDS011;14851;51.166;4.760;2022-08-21T09:32:35;8.65;;;1.58;;
27383;SDS011;14851;51.166;4.760;2022-08-21T09:37:45;7.93;;;1.20;;
27383;SDS011;14851;51.166;4.760;2022-08-21T09:45:40;6.55;;;1.17;;
27383;SDS011;14851;51.166;4.760;2022-08-21T09:48:11;7.22;;;1.60;;
27383;SDS011;14851;51.166;4.760;2022-08-21T09:50:49;6.03;;;1.63;;
27383;SDS011;14851;51.166;4.760;2022-08-21T09:56:14;7.10;;;1.40;;
27383;SDS011;14851;51.166;4.760;2022-08-21T09:59:13;6.72;;;1.20;;
27383;SDS011;14851;51.166;4.760;2022-08-21T10:01:46;5.30;;;1.48;;
27383;SDS011;14851;51.166;4.760;2022-08-21T10:04:21;7.60;;;1.55;;
27383;SDS011;14851;51.166;4.760;2022-08-21T10:06:49;7.30;;;1.42;;
27383;SDS011;14851;51.166;4.760;2022-08-21T10:09:16;8.10;;;1.88;;
27383;SDS011;14851;51.166;4.760;2022-08-21T10:12:00;4.90;;;1.48;;
27383;SDS011;14851;51.166;4.760;2022-08-21T10:20:18;6.07;;;1.55;;
27383;SDS011;14851;51.166;4.760;2022-08-21T10:25:44;6.72;;;1.88;;
27383;SDS011;14851;51.166;4.760;2022-08-21T10:28:31;6.20;;;1.45;;
27383;SDS011;14851;51.166;4.760;2022-08-21T10:33:58;5.68;;;1.50;;
27383;SDS011;14851;51.166;4.760;2022-08-21T10:47:32;7.03;;;1.90;;
27383;SDS011;14851;51.166;4.760;2022-08-21T10:53:05;6.53;;;1.33;;
27383;SDS011;14851;51.166;4.760;2022-08-21T10:58:40;8.80;;;2.42;;
27383;SDS011;14851;51.166;4.760;2022-08-21T11:04:32;5.43;;;2.15;;
27383;SDS011;14851;51.166;4.760;2022-08-21T11:07:13;8.73;;;1.52;;
27383;SDS011;14851;51.166;4.760;2022-08-21T11:09:54;4.82;;;1.40;;
27383;SDS011;14851;51.166;4.760;2022-08-21T11:12:24;9.38;;;2.10;;
27383;SDS011;14851;51.166;4.760;2022-08-21T11:17:56;11.18;;;1.80;;
27383;SDS011;14851;51.166;4.760;2022-08-21T11:20:42;9.23;;;1.50;;
27383;SDS011;14851;51.166;4.760;2022-08-21T11:23:20;9.13;;;1.60;;
27383;SDS011;14851;51.166;4.760;2022-08-21T11:25:58;8.50;;;1.90;;
27383;SDS011;14851;51.166;4.760;2022-08-21T11:28:33;8.45;;;1.73;;
27383;SDS011;14851;51.166;4.760;2022-08-21T11:33:47;8.35;;;1.80;;
27383;SDS011;14851;51.166;4.760;2022-08-21T11:36:37;11.77;;;1.88;;
27383;SDS011;14851;51.166;4.760;2022-08-21T11:45:16;6.10;;;1.63;;
27383;SDS011;14851;51.166;4.760;2022-08-21T11:50:29;9.48;;;2.10;;
27383;SDS011;14851;51.166;4.760;2022-08-21T11:53:01;9.48;;;1.95;;
27383;SDS011;14851;51.166;4.760;2022-08-21T11:55:37;9.93;;;2.83;;
27383;SDS011;14851;51.166;4.760;2022-08-21T11:58:31;7.80;;;1.40;;
27383;SDS011;14851;51.166;4.760;2022-08-21T12:01:14;7.03;;;1.25;;
27383;SDS011;14851;51.166;4.760;2022-08-21T12:03:54;6.28;;;1.50;;
27383;SDS011;14851;51.166;4.760;2022-08-21T12:08:59;9.75;;;1.55;;
27383;SDS011;14851;51.166;4.760;2022-08-21T12:11:30;8.30;;;1.90;;
27383;SDS011;14851;51.166;4.760;2022-08-21T12:13:59;5.35;;;1.40;;
27383;SDS011;14851;51.166;4.760;2022-08-21T12:16:36;8.85;;;1.55;;
27383;SDS011;14851;51.166;4.760;2022-08-21T12:30:04;7.28;;;1.55;;
27383;SDS011;14851;51.166;4.760;2022-08-21T12:32:43;8.07;;;1.92;;
27383;SDS011;14851;51.166;4.760;2022-08-21T12:35:15;7.75;;;1.45;;
27383;SDS011;14851;51.166;4.760;2022-08-21T12:37:46;6.55;;;1.92;;
27383;SDS011;14851;51.166;4.760;2022-08-21T12:40:30;6.75;;;1.88;;
27383;SDS011;14851;51.166;4.760;2022-08-21T12:43:02;7.03;;;1.60;;
27383;SDS011;14851;51.166;4.760;2022-08-21T12:45:32;4.70;;;1.50;;
27383;SDS011;14851;51.166;4.760;2022-08-21T12:48:10;7.72;;;1.40;;
27383;SDS011;14851;51.166;4.760;2022-08-21T12:50:46;5.97;;;1.38;;
27383;SDS011;14851;51.166;4.760;2022-08-21T12:56:16;9.27;;;2.08;;
27383;SDS011;14851;51.166;4.760;2022-08-21T12:58:50;7.50;;;1.48;;
27383;SDS011;14851;51.166;4.760;2022-08-21T13:01:33;9.95;;;1.65;;
27383;SDS011;14851;51.166;4.760;2022-08-21T13:04:56;8.10;;;1.75;;
27383;SDS011;14851;51.166;4.760;2022-08-21T13:07:06;7.47;;;1.50;;
27383;SDS011;14851;51.166;4.760;2022-08-21T13:09:38;7.28;;;1.38;;
27383;SDS011;14851;51.166;4.760;2022-08-21T13:12:15;6.45;;;1.67;;
27383;SDS011;14851;51.166;4.760;2022-08-21T13:14:47;7.80;;;2.10;;
27383;SDS011;14851;51.166;4.760;2022-08-21T13:17:17;5.07;;;1.52;;
27383;SDS011;14851;51.166;4.760;2022-08-21T13:20:09;8.85;;;1.65;;
27383;SDS011;14851;51.166;4.760;2022-08-21T13:22:46;8.43;;;1.60;;
27383;SDS011;14851;51.166;4.760;2022-08-21T13:25:13;7.68;;;2.10;;
27383;SDS011;14851;51.166;4.760;2022-08-21T13:30:46;10.68;;;1.63;;
27383;SDS011;14851;51.166;4.760;2022-08-21T13:33:16;5.05;;;1.42;;
27383;SDS011;14851;51.166;4.760;2022-08-21T13:38:22;7.47;;;1.70;;
27383;SDS011;14851;51.166;4.760;2022-08-21T13:40:59;9.32;;;2.47;;
27383;SDS011;14851;51.166;4.760;2022-08-21T13:43:31;5.93;;;1.58;;
27383;SDS011;14851;51.166;4.760;2022-08-21T13:46:02;6.18;;;1.70;;
27383;SDS011;14851;51.166;4.760;2022-08-21T13:48:34;5.28;;;1.38;;
27383;SDS011;14851;51.166;4.760;2022-08-21T13:51:01;4.65;;;1.23;;
27383;SDS011;14851;51.166;4.760;2022-08-21T13:53:44;7.68;;;1.65;;
27383;SDS011;14851;51.166;4.760;2022-08-21T13:58:57;8.63;;;1.60;;
27383;SDS011;14851;51.166;4.760;2022-08-21T14:01:31;5.72;;;1.10;;
27383;SDS011;14851;51.166;4.760;2022-08-21T14:04:04;6.05;;;1.35;;
27383;SDS011;14851;51.166;4.760;2022-08-21T14:06:41;6.50;;;1.33;;
27383;SDS011;14851;51.166;4.760;2022-08-21T14:09:12;6.30;;;1.38;;
27383;SDS011;14851;51.166;4.760;2022-08-21T14:11:49;7.43;;;1.95;;
27383;SDS011;14851;51.166;4.760;2022-08-21T14:14:29;7.20;;;1.60;;
27383;SDS011;14851;51.166;4.760;2022-08-21T14:17:03;9.77;;;2.10;;
27383;SDS011;14851;51.166;4.760;2022-08-21T14:19:39;7.03;;;1.75;;
27383;SDS011;14851;51.166;4.760;2022-08-21T14:25:26;8.15;;;2.22;;
27383;SDS011;14851;51.166;4.760;2022-08-21T14:28:20;6.13;;;1.58;;
27383;SDS011;14851;51.166;4.760;2022-08-21T14:30:54;10.95;;;2.10;;
27383;SDS011;14851;51.166;4.760;2022-08-21T14:33:26;8.30;;;1.92;;
27383;SDS011;14851;51.166;4.760;2022-08-21T14:35:56;7.63;;;1.77;;
27383;SDS011;14851;51.166;4.760;2022-08-21T14:38:24;9.30;;;1.80;;
27383;SDS011;14851;51.166;4.760;2022-08-21T14:40:54;7.78;;;1.80;;
27383;SDS011;14851;51.166;4.760;2022-08-21T14:43:25;6.90;;;1.70;;
27383;SDS011;14851;51.166;4.760;2022-08-21T14:45:52;7.35;;;1.95;;
27383;SDS011;14851;51.166;4.760;2022-08-21T14:48:18;6.00;;;1.48;;
27383;SDS011;14851;51.166;4.760;2022-08-21T14:50:45;6.45;;;1.55;;
27383;SDS011;14851;51.166;4.760;2022-08-21T14:53:12;7.70;;;2.05;;
27383;SDS011;14851;51.166;4.760;2022-08-21T14:55:41;6.78;;;1.83;;
27383;SDS011;14851;51.166;4.760;2022-08-21T14:58:25;8.15;;;2.55;;
27383;SDS011;14851;51.166;4.760;2022-08-21T15:00:55;7.97;;;1.90;;
27383;SDS011;14851;51.166;4.760;2022-08-21T15:03:22;7.88;;;1.83;;
27383;SDS011;14851;51.166;4.760;2022-08-21T15:05:49;13.80;;;2.00;;
27383;SDS011;14851;51.166;4.760;2022-08-21T15:08:16;7.55;;;1.88;;
27383;SDS011;14851;51.166;4.760;2022-08-21T15:10:42;5.93;;;1.60;;
27383;SDS011;14851;51.166;4.760;2022-08-21T15:13:11;7.05;;;1.92;;
27383;SDS011;14851;51.166;4.760;2022-08-21T15:15:42;6.85;;;1.73;;
27383;SDS011;14851;51.166;4.760;2022-08-21T15:18:09;7.88;;;2.00;;
27383;SDS011;14851;51.166;4.760;2022-08-21T15:20:35;8.45;;;2.03;;
27383;SDS011;14851;51.166;4.760;2022-08-21T15:23:06;7.43;;;1.67;;
27383;SDS011;14851;51.166;4.760;2022-08-21T15:25:34;6.47;;;1.73;;
27383;SDS011;14851;51.166;4.760;2022-08-21T15:28:03;5.78;;;1.90;;
27383;SDS011;14851;51.166;4.760;2022-08-21T15:30:29;7.28;;;1.85;;
27383;SDS011;14851;51.166;4.760;2022-08-21T15:32:58;5.63;;;1.45;;
27383;SDS011;14851;51.166;4.760;2022-08-21T15:35:25;10.13;;;2.33;;
27383;SDS011;14851;51.166;4.760;2022-08-21T15:37:52;6.75;;;1.67;;
27383;SDS011;14851;51.166;4.760;2022-08-21T15:40:21;8.80;;;2.00;;
27383;SDS011;14851;51.166;4.760;2022-08-21T15:42:48;8.32;;;2.17;;
27383;SDS011;14851;51.166;4.760;2022-08-21T15:45:18;10.57;;;2.28;;
27383;SDS011;14851;51.166;4.760;2022-08-21T15:47:47;7.97;;;1.63;;
27383;SDS011;14851;51.166;4.760;2022-08-21T15:50:14;10.98;;;2.25;;
27383;SDS011;14851;51.166;4.760;2022-08-21T15:52:41;8.57;;;1.98;;
27383;SDS011;14851;51.166;4.760;2022-08-21T15:55:07;9.00;;;1.98;;
27383;SDS011;14851;51.166;4.760;2022-08-21T15:57:37;8.07;;;1.95;;
27383;SDS011;14851;51.166;4.760;2022-08-21T16:00:14;8.73;;;2.55;;
27383;SDS011;14851;51.166;4.760;2022-08-21T16:02:45;13.77;;;2.85;;
27383;SDS011;14851;51.166;4.760;2022-08-21T16:05:13;9.57;;;2.05;;
27383;SDS011;14851;51.166;4.760;2022-08-21T16:07:42;7.00;;;1.80;;
27383;SDS011;14851;51.166;4.760;2022-08-21T16:10:09;8.05;;;2.28;;
27383;SDS011;14851;51.166;4.760;2022-08-21T16:12:38;8.65;;;1.77;;
27383;SDS011;14851;51.166;4.760;2022-08-21T16:15:08;7.28;;;1.80;;
27383;SDS011;14851;51.166;4.760;2022-08-21T16:17:39;10.13;;;2.30;;
27383;SDS011;14851;51.166;4.760;2022-08-21T16:20:13;6.30;;;1.55;;
27383;SDS011;14851;51.166;4.760;2022-08-21T16:22:41;7.50;;;2.17;;
27383;SDS011;14851;51.166;4.760;2022-08-21T16:25:07;6.60;;;2.38;;
27383;SDS011;14851;51.166;4.760;2022-08-21T16:27:34;6.35;;;1.60;;
27383;SDS011;14851;51.166;4.760;2022-08-21T16:30:02;9.50;;;2.42;;
27383;SDS011;14851;51.166;4.760;2022-08-21T16:34:57;8.02;;;2.00;;
27383;SDS011;14851;51.166;4.760;2022-08-21T16:37:24;7.25;;;2.47;;
27383;SDS011;14851;51.166;4.760;2022-08-21T16:39:51;10.75;;;2.90;;
27383;SDS011;14851;51.166;4.760;2022-08-21T16:42:20;9.95;;;2.65;;
27383;SDS011;14851;51.166;4.760;2022-08-21T16:44:48;8.88;;;2.05;;
27383;SDS011;14851;51.166;4.760;2022-08-21T16:47:15;9.60;;;2.25;;
27383;SDS011;14851;51.166;4.760;2022-08-21T16:49:43;8.43;;;1.77;;
27383;SDS011;14851;51.166;4.760;2022-08-21T16:52:11;9.07;;;1.83;;
27383;SDS011;14851;51.166;4.760;2022-08-21T16:54:37;7.85;;;2.05;;